Time;durP1;ratioP1;P1;durP2;ratioP2;P2;SDS_P1;SDS_P2;PMS_P1;PMS_P2;Temp;Humidity;BMP_temperature;BMP_pressure;BME280_temperature;BME280_humidity;BME280_pressure;Samples;Min_cycle;Max_cycle;Signal;HPM_P1;HPM_P2
2022/03/27 00:00:24;;;;;;;;;;;;;;;3.16;71.87;100812.47;5024523;28;19947;-85
2022/03/27 00:02:50;;;;;;;;;;;;;;;3.14;71.96;100820.31;5019125;28;19918;-84
2022/03/27 00:05:15;;;;;;;;;;;;;;;3.15;72.15;100814.22;5022183;28;19928;-84
2022/03/27 00:07:40;;;;;;;;;;;;;;;3.15;71.80;100809.00;5023715;28;19917;-83
2022/03/27 00:10:06;;;;;;;;;;;;;;;3.17;71.78;100814.22;5018457;28;20349;-84
2022/03/27 00:12:31;;;;;;;;;;;;;;;3.17;71.51;100817.72;5022465;28;19918;-83
2022/03/27 00:14:56;;;;;;;;;;;;;;;3.20;71.53;100814.25;5021656;28;19921;-83
2022/03/27 00:17:22;;;;;;;;;;;;;;;3.24;71.53;100811.66;5023610;28;19917;-84
2022/03/27 00:19:50;;;;;;;;;;;;;;;3.23;71.71;100812.50;5024227;28;19928;-86
2022/03/27 00:22:15;;;;;;;;;;;;;;;3.23;71.58;100809.88;5023102;28;19921;-85
2022/03/27 00:24:40;;;;;;;;;;;;;;;3.28;71.63;100812.53;5021909;28;19921;-84
2022/03/27 00:27:06;;;;;;;;;;;;;;;3.29;71.98;100811.66;5023219;28;19944;-83
2022/03/27 00:29:31;;;;;;;;;;;;;;;3.30;72.27;100805.53;5023581;28;20019;-84
2022/03/27 00:31:56;;;;;;;;;;;;;;;3.31;72.15;100806.44;5023009;28;19918;-84
2022/03/27 00:34:21;;;;;;;;;;;;;;;3.32;72.21;100806.44;5023284;28;20295;-82
2022/03/27 00:36:48;;;;;;;;;;;;;;;3.33;72.08;100804.69;5023814;28;19971;-81
2022/03/27 00:39:13;;;;;;;;;;;;;;;3.32;71.82;100806.44;5021878;28;19914;-83
2022/03/27 00:41:38;;;;;;;;;;;;;;;3.35;71.75;100805.56;5021894;28;19921;-82
2022/03/27 00:44:04;;;;;;;;;;;;;;;3.32;71.71;100803.81;5021523;28;19931;-84
2022/03/27 00:46:29;;;;;;;;;;;;;;;3.36;71.71;100800.31;5022591;28;19972;-83
2022/03/27 00:48:54;;;;;;;;;;;;;;;3.38;71.84;100801.22;5022384;28;20024;-84
2022/03/27 00:51:20;;;;;;;;;;;;;;;3.50;72.56;100809.97;5019715;28;19913;-84
2022/03/27 00:53:45;;;;;;;;;;;;;;;3.67;74.43;100804.75;5021729;28;19928;-85
2022/03/27 00:56:10;;;;;;;;;;;;;;;3.79;76.40;100805.66;5020824;28;19921;-85
2022/03/27 00:58:36;;;;;;;;;;;;;;;3.86;78.28;100801.31;5021883;28;20372;-83
2022/03/27 01:01:15;;;;;;;;;;;;;;;3.90;80.13;100802.19;5021608;28;19979;-83
2022/03/27 01:03:41;;;;;;;;;;;;;;;3.91;81.77;100798.66;5022678;28;19928;-85
2022/03/27 01:06:16;;;;;;;;;;;;;;;3.89;83.21;100790.78;5021685;28;19913;-84
2022/03/27 01:11:26;;;;;;;;;;;;;;;3.77;85.33;100789.03;5021641;28;19919;-83
2022/03/27 01:13:55;;;;;;;;;;;;;;;3.76;86.14;100791.66;5022389;28;19937;-84
2022/03/27 01:16:48;;;;;;;;;;;;;;;3.70;87.01;100792.56;5021461;28;20000;-82
2022/03/27 01:19:14;;;;;;;;;;;;;;;3.56;88.39;100789.03;5018741;28;20008;-83
2022/03/27 01:21:41;;;;;;;;;;;;;;;3.51;89.49;100782.88;5021375;28;19922;-84
2022/03/27 01:24:06;;;;;;;;;;;;;;;3.50;90.43;100784.63;5021339;28;19960;-84
2022/03/27 01:26:33;;;;;;;;;;;;;;;3.42;91.35;100779.38;5020759;28;20018;-85
2022/03/27 01:28:58;;;;;;;;;;;;;;;3.53;92.62;100781.16;5037108;28;19921;-84
2022/03/27 01:31:24;;;;;;;;;;;;;;;3.57;94.78;100777.66;5016813;28;19932;-83
2022/03/27 01:33:49;;;;;;;;;;;;;;;3.77;97.57;100768.06;5018103;28;19928;-82
2022/03/27 01:36:25;;;;;;;;;;;;;;;4.00;100.00;100772.44;5019770;28;19973;-82
2022/03/27 01:38:51;;;;;;;;;;;;;;;4.42;100.00;100770.66;5019099;28;19972;-82
2022/03/27 01:41:17;;;;;;;;;;;;;;;4.54;100.00;100769.75;5019261;28;19940;-83
2022/03/27 01:43:42;;;;;;;;;;;;;;;4.62;100.00;100775.00;5019741;28;19921;-82
2022/03/27 01:46:07;;;;;;;;;;;;;;;4.67;100.00;100765.34;5020005;28;19968;-82
2022/03/27 01:48:33;;;;;;;;;;;;;;;4.75;100.00;100767.94;5022283;28;19918;-82
2022/03/27 01:50:59;;;;;;;;;;;;;;;4.74;100.00;100767.09;5020077;28;19921;-82
2022/03/27 01:53:25;;;;;;;;;;;;;;;4.76;100.00;100762.69;5021960;28;19925;-83
2022/03/27 01:55:50;;;;;;;;;;;;;;;4.80;100.00;100764.41;5020404;28;19921;-82
2022/03/27 01:58:15;;;;;;;;;;;;;;;4.83;100.00;100761.78;5020678;28;20028;-82
2022/03/27 04:02:47;;;;;;;;;;;;;;;4.29;100.00;100748.81;5018475;28;19936;-84
2022/03/27 04:05:13;;;;;;;;;;;;;;;4.04;100.00;100745.34;5043728;28;19929;-83
2022/03/27 04:07:38;;;;;;;;;;;;;;;3.96;100.00;100754.97;5043087;28;20011;-82
2022/03/27 04:10:03;;;;;;;;;;;;;;;3.86;100.00;100753.22;5043198;28;19925;-81
2022/03/27 04:12:29;;;;;;;;;;;;;;;3.73;100.00;100755.81;5043903;28;19917;-82
2022/03/27 04:14:54;;;;;;;;;;;;;;;3.69;100.00;100750.59;5041121;28;19948;-83
2022/03/27 04:17:19;;;;;;;;;;;;;;;3.53;100.00;100758.44;5043055;28;19964;-82
2022/03/27 04:19:44;;;;;;;;;;;;;;;3.55;100.00;100743.59;5043817;28;19974;-83
2022/03/27 04:22:10;;;;;;;;;;;;;;;3.56;100.00;100754.97;5042712;28;20356;-83
2022/03/27 04:24:35;;;;;;;;;;;;;;;3.58;99.92;100750.59;5042773;28;19921;-83
2022/03/27 04:27:00;;;;;;;;;;;;;;;3.55;99.63;100754.06;5043757;28;19917;-82
2022/03/27 04:29:26;;;;;;;;;;;;;;;3.51;99.55;100754.06;5042087;28;19920;-83
2022/03/27 04:31:51;;;;;;;;;;;;;;;3.41;99.28;100747.94;5042616;28;19917;-84
2022/03/27 04:34:17;;;;;;;;;;;;;;;3.39;99.45;100761.03;5043816;28;20283;-82
2022/03/27 04:36:42;;;;;;;;;;;;;;;3.28;99.36;100757.50;5043616;28;19924;-84
2022/03/27 04:39:08;;;;;;;;;;;;;;;3.31;99.47;100754.91;5043416;28;19967;-83
2022/03/27 04:41:33;;;;;;;;;;;;;;;3.28;99.33;100761.00;5043991;28;20322;-83
2022/03/27 04:43:59;;;;;;;;;;;;;;;3.19;99.35;100761.00;5043674;28;19921;-82
2022/03/27 04:46:24;;;;;;;;;;;;;;;3.11;99.36;100759.22;5042372;28;19940;-83
2022/03/27 04:48:50;;;;;;;;;;;;;;;3.19;99.39;100765.34;5043226;28;20347;-82
2022/03/27 04:51:16;;;;;;;;;;;;;;;3.20;99.29;100762.72;5042076;28;19921;-82
2022/03/27 04:53:41;;;;;;;;;;;;;;;3.18;99.02;100758.38;5043435;28;19924;-83
2022/03/27 04:56:06;;;;;;;;;;;;;;;3.09;98.93;100760.09;5042540;28;19920;-87
2022/03/27 04:58:32;;;;;;;;;;;;;;;3.08;98.91;100768.81;5042980;28;20335;-85
2022/03/27 05:00:57;;;;;;;;;;;;;;;3.19;99.52;100765.34;5040489;28;19943;-82
2022/03/27 05:03:22;;;;;;;;;;;;;;;3.35;100.00;100764.53;5042865;28;20299;-81
2022/03/27 05:05:48;;;;;;;;;;;;;;;3.36;100.00;100768.00;5042121;28;19921;-87
2022/03/27 05:08:13;;;;;;;;;;;;;;;3.28;100.00;100770.63;5042684;28;19917;-82
2022/03/27 05:10:39;;;;;;;;;;;;;;;3.25;100.00;100766.22;5041312;28;19974;-86
2022/03/27 05:13:04;;;;;;;;;;;;;;;3.25;100.00;100763.59;5043034;28;19923;-82
2022/03/27 05:15:29;;;;;;;;;;;;;;;3.21;100.00;100768.88;5041579;28;19921;-81
2022/03/27 05:17:57;;;;;;;;;;;;;;;3.24;100.00;100763.63;5042685;28;20000;-83
2022/03/27 05:20:22;;;;;;;;;;;;;;;3.15;100.00;100768.84;5041227;28;20394;-82
2022/03/27 05:22:48;;;;;;;;;;;;;;;3.05;100.00;100765.31;5043220;28;19917;-86
2022/03/27 05:25:15;;;;;;;;;;;;;;;3.09;100.00;100774.91;5042742;28;19963;-82
2022/03/27 05:27:53;;;;;;;;;;;;;;;3.06;100.00;100778.41;5041211;28;19921;-85
2022/03/27 05:30:19;;;;;;;;;;;;;;;3.05;100.00;100771.41;5040265;28;19918;-82
2022/03/27 05:32:45;;;;;;;;;;;;;;;3.02;100.00;100773.16;5042745;28;19916;-82
2022/03/27 05:35:10;;;;;;;;;;;;;;;2.99;99.80;100779.25;5042776;28;20027;-82
2022/03/27 05:37:36;;;;;;;;;;;;;;;2.97;99.50;100770.53;5041193;28;19917;-82
2022/03/27 05:40:03;;;;;;;;;;;;;;;2.92;99.06;100777.50;5041084;28;19924;-82
2022/03/27 05:42:29;;;;;;;;;;;;;;;2.93;98.88;100779.22;5041103;28;19924;-82
2022/03/27 05:44:54;;;;;;;;;;;;;;;2.85;98.65;100783.56;5039597;28;19917;-82
2022/03/27 05:47:19;;;;;;;;;;;;;;;2.87;98.57;100781.81;5041424;28;20015;-82
2022/03/27 12:48:25;;;;;;;;;;;;;;;4.14;86.25;100636.91;5179499;23;20394;-83
2022/03/27 12:50:58;;;;;;;;;;;;;;;4.27;86.17;100644.75;4934028;29;20370;-83
2022/03/27 12:53:23;;;;;;;;;;;;;;;4.42;86.88;100638.56;4934212;29;19974;-85
2022/03/27 12:55:48;;;;;;;;;;;;;;;4.50;87.78;100632.41;4935799;29;19923;-84
2022/03/27 12:58:16;;;;;;;;;;;;;;;4.58;88.81;100636.75;4934820;29;19923;-82
2022/03/27 13:00:43;;;;;;;;;;;;;;;4.53;89.34;100628.88;4934978;29;19958;-84
2022/03/27 13:03:08;;;;;;;;;;;;;;;4.48;90.09;100630.66;4933463;29;19926;-84
2022/03/27 13:05:34;;;;;;;;;;;;;;;4.42;90.50;100625.44;4934880;29;20267;-82
2022/03/27 13:07:59;;;;;;;;;;;;;;;4.33;90.88;100623.75;4934183;29;19915;-83
2022/03/27 13:10:26;;;;;;;;;;;;;;;4.27;91.03;100619.38;4934843;29;19923;-82
2022/03/27 13:13:02;;;;;;;;;;;;;;;4.11;91.11;100621.19;4934713;29;19914;-83
2022/03/27 13:15:37;;;;;;;;;;;;;;;3.91;91.46;100620.34;4934277;29;19930;-83
2022/03/27 13:18:08;;;;;;;;;;;;;;;3.88;92.39;100609.88;4933744;29;19973;-84
2022/03/27 13:20:34;;;;;;;;;;;;;;;3.88;93.61;100607.25;4934951;29;20035;-84
2022/03/27 13:23:00;;;;;;;;;;;;;;;3.92;95.16;100596.75;4934476;29;20052;-84
2022/03/27 13:25:26;;;;;;;;;;;;;;;3.98;97.85;100598.50;4935613;29;19973;-84
2022/03/27 13:27:51;;;;;;;;;;;;;;;4.22;100.00;100600.16;4935626;29;20370;-83
2022/03/27 13:30:17;;;;;;;;;;;;;;;4.49;100.00;100599.16;4935151;29;19923;-82
2022/03/27 13:32:42;;;;;;;;;;;;;;;4.60;100.00;100593.00;4933876;29;19919;-84
2022/03/27 13:35:08;;;;;;;;;;;;;;;4.71;100.00;100584.16;4935343;29;20010;-83
2022/03/27 13:37:33;;;;;;;;;;;;;;;4.76;100.00;100589.41;4935408;29;19929;-82
2022/03/27 13:39:58;;;;;;;;;;;;;;;4.86;100.00;100583.19;4935252;29;19923;-83
2022/03/27 13:45:07;;;;;;;;;;;;;;;4.95;100.00;100578.78;4935567;29;19965;-83
2022/03/27 13:47:33;;;;;;;;;;;;;;;4.97;100.00;100571.75;4934001;29;20367;-82
2022/03/27 13:49:58;;;;;;;;;;;;;;;5.02;100.00;100570.81;4933622;29;19930;-84
2022/03/27 13:52:23;;;;;;;;;;;;;;;5.05;100.00;100569.94;4935145;29;19965;-83
2022/03/27 13:54:48;;;;;;;;;;;;;;;5.12;100.00;100562.88;4933631;29;19941;-82
2022/03/27 13:57:14;;;;;;;;;;;;;;;5.14;100.00;100558.47;4933594;29;19923;-82
2022/03/27 13:59:39;;;;;;;;;;;;;;;5.19;100.00;100556.69;4935184;29;19923;-83
2022/03/27 14:02:05;;;;;;;;;;;;;;;5.22;100.00;100554.03;4933785;29;20021;-84
2022/03/27 14:04:30;;;;;;;;;;;;;;;5.22;100.00;100546.16;4934904;29;20374;-85
2022/03/27 14:06:55;;;;;;;;;;;;;;;5.32;100.00;100554.84;4934103;29;19925;-83
2022/03/27 14:09:21;;;;;;;;;;;;;;;5.34;100.00;100545.16;4934907;29;19919;-83
2022/03/27 14:11:47;;;;;;;;;;;;;;;5.41;100.00;100541.63;4934959;29;20330;-85
2022/03/27 14:14:13;;;;;;;;;;;;;;;5.40;100.00;100542.50;4934666;29;19962;-84
2022/03/27 14:16:40;;;;;;;;;;;;;;;5.43;100.00;100540.69;4932408;29;19962;-85
2022/03/27 14:19:07;;;;;;;;;;;;;;;5.44;100.00;100538.94;4933329;29;19915;-85
2022/03/27 14:21:32;;;;;;;;;;;;;;;5.44;100.00;100539.81;4934837;29;19922;-86
2022/03/27 14:23:57;;;;;;;;;;;;;;;5.46;100.00;100537.19;4934098;29;20005;-83
2022/03/27 14:26:22;;;;;;;;;;;;;;;5.08;100.00;100533.13;4934635;29;20234;-85
2022/03/27 14:28:48;;;;;;;;;;;;;;;4.27;100.00;100527.53;4934691;29;20002;-86
2022/03/27 14:31:13;;;;;;;;;;;;;;;4.07;100.00;100534.63;4934907;29;19919;-85
2022/03/27 14:33:39;;;;;;;;;;;;;;;3.94;100.00;100531.19;4932341;29;20362;-86
2022/03/27 14:36:04;;;;;;;;;;;;;;;3.92;100.00;100527.72;4934471;29;20014;-82
2022/03/27 14:38:29;;;;;;;;;;;;;;;3.80;100.00;100526.88;4930813;29;19929;-86
2022/03/27 14:40:55;;;;;;;;;;;;;;;3.74;100.00;100519.03;4934555;29;20250;-86
2022/03/27 14:43:21;;;;;;;;;;;;;;;3.65;100.00;100521.66;4935983;29;19923;-83
2022/03/27 14:45:49;;;;;;;;;;;;;;;3.53;100.00;100521.72;4945171;29;20005;-86
2022/03/27 14:48:14;;;;;;;;;;;;;;;3.50;100.00;100526.97;4937222;29;19929;-86
2022/03/27 14:50:40;;;;;;;;;;;;;;;3.42;100.00;100521.75;4938351;29;20009;-83
2022/03/27 14:53:05;;;;;;;;;;;;;;;3.44;100.00;100519.97;4938248;29;19930;-86
2022/03/27 14:58:17;;;;;;;;;;;;;;;3.34;99.56;100510.41;4936900;29;19926;-86
2022/03/27 15:00:43;;;;;;;;;;;;;;;3.41;99.24;100514.75;4937042;29;19922;-86
2022/03/27 15:03:08;;;;;;;;;;;;;;;3.32;98.69;100505.16;4936586;29;19922;-84
2022/03/27 15:05:34;;;;;;;;;;;;;;;3.25;98.35;100500.81;4938245;29;19925;-85
2022/03/27 15:08:00;;;;;;;;;;;;;;;3.29;98.36;100494.69;4937085;29;19969;-85
2022/03/27 15:10:25;;;;;;;;;;;;;;;3.34;97.98;100495.56;4937944;29;20326;-86
2022/03/27 15:12:50;;;;;;;;;;;;;;;3.26;97.28;100498.19;4937304;29;20329;-86
2022/03/27 15:15:17;;;;;;;;;;;;;;;3.19;97.08;100500.81;4937899;29;19922;-86
2022/03/27 15:17:42;;;;;;;;;;;;;;;3.13;96.72;100501.69;4934830;29;19918;-84
2022/03/27 15:20:08;;;;;;;;;;;;;;;3.28;96.39;100498.19;4936549;29;20286;-84
2022/03/27 15:22:37;;;;;;;;;;;;;;;3.20;96.02;100490.31;4937934;29;19927;-86
2022/03/27 15:25:08;;;;;;;;;;;;;;;3.13;95.92;100493.84;4936728;29;19942;-86
2022/03/27 15:27:33;;;;;;;;;;;;;;;3.09;95.45;100495.59;4951197;29;19926;-85
2022/03/27 15:29:58;;;;;;;;;;;;;;;3.14;95.21;100486.84;4937704;29;19918;-85
2022/03/27 15:32:24;;;;;;;;;;;;;;;3.09;94.98;100482.50;4935065;29;19926;-83
2022/03/27 15:34:50;;;;;;;;;;;;;;;3.04;94.55;100491.22;4937432;29;20385;-84
2022/03/27 15:37:15;;;;;;;;;;;;;;;3.05;94.49;100485.13;4937572;29;19923;-85
2022/03/27 15:39:40;;;;;;;;;;;;;;;3.05;94.11;100483.38;4937328;29;19914;-86
2022/03/27 15:42:06;;;;;;;;;;;;;;;3.00;93.93;100474.66;4936297;29;20347;-84
2022/03/27 15:44:31;;;;;;;;;;;;;;;2.93;93.72;100475.53;4937252;29;19927;-87
2022/03/27 15:46:57;;;;;;;;;;;;;;;2.94;93.54;100477.28;4935082;29;19927;-85
2022/03/27 15:49:22;;;;;;;;;;;;;;;2.90;93.29;100472.91;4936037;29;20342;-83
2022/03/27 15:51:47;;;;;;;;;;;;;;;2.94;92.97;100482.50;4937418;29;19918;-87
2022/03/27 15:54:13;;;;;;;;;;;;;;;2.90;92.61;100475.53;4934900;29;19922;-86
2022/03/27 15:56:38;;;;;;;;;;;;;;;2.93;92.35;100490.38;4937370;29;20391;-85
2022/03/27 15:59:04;;;;;;;;;;;;;;;2.93;92.37;100480.75;4937300;29;19970;-84
2022/03/27 16:01:29;;;;;;;;;;;;;;;2.96;92.20;100487.75;4935243;29;19923;-85
2022/03/27 16:03:54;;;;;;;;;;;;;;;2.94;91.92;100479.91;4935475;29;19923;-84
2022/03/27 16:06:20;;;;;;;;;;;;;;;2.85;91.74;100469.41;4936502;29;20275;-84
2022/03/27 16:08:47;;;;;;;;;;;;;;;2.81;91.91;100470.28;4927393;29;19965;-84
2022/03/27 16:11:13;;;;;;;;;;;;;;;2.80;91.85;100472.03;4937013;29;20429;-88
2022/03/27 16:13:39;;;;;;;;;;;;;;;2.83;91.40;100476.41;4937007;29;19923;-83
2022/03/27 16:16:05;;;;;;;;;;;;;;;2.85;91.30;100472.03;4936900;29;19970;-84
2022/03/27 16:18:31;;;;;;;;;;;;;;;2.79;90.97;100477.28;4934387;29;19918;-86
2022/03/27 16:20:56;;;;;;;;;;;;;;;2.78;91.15;100471.19;4937046;29;19919;-83
2022/03/27 16:23:22;;;;;;;;;;;;;;;2.75;90.90;100476.41;4935454;29;20290;-85
2022/03/27 16:25:47;;;;;;;;;;;;;;;2.76;90.79;100475.53;4936853;29;19923;-86
2022/03/27 16:28:12;;;;;;;;;;;;;;;2.69;90.61;100472.03;4935347;29;20286;-85
2022/03/27 16:30:39;;;;;;;;;;;;;;;2.70;90.47;100467.69;4935362;29;20381;-84
2022/03/27 16:33:04;;;;;;;;;;;;;;;2.72;90.36;100466.78;4935431;29;19930;-83
2022/03/27 16:35:29;;;;;;;;;;;;;;;2.74;90.40;100469.41;4936540;29;19923;-84
2022/03/27 16:37:57;;;;;;;;;;;;;;;2.71;90.08;100475.53;4936408;29;19919;-85
2022/03/27 16:40:23;;;;;;;;;;;;;;;2.69;89.77;100474.66;4935153;29;19923;-83
2022/03/27 16:42:48;;;;;;;;;;;;;;;2.74;89.53;100474.66;4936594;29;19926;-83
2022/03/27 16:45:13;;;;;;;;;;;;;;;2.67;89.56;100473.78;4935119;29;19926;-84
2022/03/27 16:47:39;;;;;;;;;;;;;;;2.72;89.42;100471.16;4934027;29;20184;-83
2022/03/27 16:50:05;;;;;;;;;;;;;;;2.64;89.12;100471.16;4935000;29;19923;-83
2022/03/27 16:52:30;;;;;;;;;;;;;;;2.63;89.12;100476.41;4934872;29;19930;-83
2022/03/27 16:54:55;;;;;;;;;;;;;;;2.69;89.26;100474.66;4934932;29;19919;-83
2022/03/27 16:57:21;;;;;;;;;;;;;;;2.68;89.10;100486.00;4935551;29;20318;-85
2022/03/27 16:59:46;;;;;;;;;;;;;;;2.64;88.74;100486.88;4935782;29;19923;-83
2022/03/27 17:02:11;;;;;;;;;;;;;;;2.64;88.58;100478.16;4934955;29;20006;-83
2022/03/27 17:04:37;;;;;;;;;;;;;;;2.67;88.55;100478.16;4934721;29;19926;-83
2022/03/27 17:07:02;;;;;;;;;;;;;;;2.73;88.57;100486.00;4935900;29;20401;-86
2022/03/27 17:09:27;;;;;;;;;;;;;;;2.68;88.22;100482.50;4935659;29;19919;-86
2022/03/27 17:11:53;;;;;;;;;;;;;;;2.62;88.08;100479.91;4935973;29;19977;-83
2022/03/27 17:14:19;;;;;;;;;;;;;;;2.63;88.09;100479.00;4935686;29;19922;-84
2022/03/27 17:16:44;;;;;;;;;;;;;;;2.64;87.65;100484.25;4933232;29;20341;-87
2022/03/27 17:19:10;;;;;;;;;;;;;;;2.64;87.28;100479.00;4935927;29;20010;-86
2022/03/27 17:21:35;;;;;;;;;;;;;;;2.66;87.17;100479.88;4934517;29;19926;-82
2022/03/27 17:24:00;;;;;;;;;;;;;;;2.57;87.08;100477.28;4935058;29;19919;-83
2022/03/27 17:26:26;;;;;;;;;;;;;;;2.57;87.22;100481.63;4934366;29;19923;-83
2022/03/27 17:28:51;;;;;;;;;;;;;;;2.63;87.22;100479.91;4935640;29;19922;-86
2022/03/27 17:31:16;;;;;;;;;;;;;;;2.59;87.13;100477.28;4935447;29;19946;-84
2022/03/27 17:33:42;;;;;;;;;;;;;;;2.57;87.14;100477.28;4934389;29;19966;-83
2022/03/27 17:36:08;;;;;;;;;;;;;;;2.65;86.82;100480.78;4935448;29;19923;-83
2022/03/27 17:38:34;;;;;;;;;;;;;;;2.70;87.07;100478.16;4931988;29;19929;-84
2022/03/27 17:40:59;;;;;;;;;;;;;;;2.58;86.86;100484.25;4932981;29;19923;-82
2022/03/27 17:43:26;;;;;;;;;;;;;;;2.59;86.83;100488.59;4934251;29;19922;-82
2022/03/27 17:45:52;;;;;;;;;;;;;;;2.61;86.70;100483.38;4934911;29;19919;-84
2022/03/27 17:48:17;;;;;;;;;;;;;;;2.61;86.32;100484.25;4933986;29;19930;-84
2022/03/27 17:50:43;;;;;;;;;;;;;;;2.57;86.42;100490.38;4931636;29;20309;-84
2022/03/27 17:53:08;;;;;;;;;;;;;;;2.60;86.43;100489.47;4933541;29;19973;-84
2022/03/27 17:55:33;;;;;;;;;;;;;;;2.65;86.48;100495.56;4934293;29;21612;-85
2022/03/27 17:57:59;;;;;;;;;;;;;;;2.56;86.36;100496.47;4933200;29;19922;-84
2022/03/27 18:00:24;;;;;;;;;;;;;;;2.60;86.35;100507.78;4933946;29;19993;-84
2022/03/27 18:02:49;;;;;;;;;;;;;;;2.58;86.18;100509.53;4932421;29;20317;-84
2022/03/27 18:05:16;;;;;;;;;;;;;;;2.62;86.19;100501.69;4935182;29;19966;-85
2022/03/27 18:07:42;;;;;;;;;;;;;;;2.57;86.42;100503.44;4933276;29;19923;-84
2022/03/27 18:10:07;;;;;;;;;;;;;;;2.63;86.27;100513.94;4935324;29;19929;-84
2022/03/27 18:12:32;;;;;;;;;;;;;;;2.56;86.40;100512.16;4932835;29;19922;-84
2022/03/27 18:14:58;;;;;;;;;;;;;;;2.58;86.38;100517.38;4933813;29;20387;-83
2022/03/27 18:17:23;;;;;;;;;;;;;;;2.55;86.37;100518.25;4933171;29;20314;-89
2022/03/27 18:19:49;;;;;;;;;;;;;;;2.58;86.37;100518.25;4934999;29;19927;-83
2022/03/27 18:22:14;;;;;;;;;;;;;;;2.62;85.94;100521.78;4933451;29;20378;-84
2022/03/27 18:24:39;;;;;;;;;;;;;;;2.58;85.84;100520.88;4933391;29;19927;-85
2022/03/27 18:27:04;;;;;;;;;;;;;;;2.62;85.71;100527.00;4934959;29;19966;-84
2022/03/27 18:29:30;;;;;;;;;;;;;;;2.56;85.63;100527.00;4934446;29;19927;-84
2022/03/27 18:31:55;;;;;;;;;;;;;;;2.58;85.77;100538.31;4931344;29;19981;-83
2022/03/27 18:34:21;;;;;;;;;;;;;;;2.56;85.72;100540.94;4935726;29;19927;-83
2022/03/27 18:36:47;;;;;;;;;;;;;;;2.59;85.62;100538.31;4932444;29;19919;-86
2022/03/27 18:39:13;;;;;;;;;;;;;;;2.59;85.38;100535.72;4934085;29;19923;-84
2022/03/27 18:41:38;;;;;;;;;;;;;;;2.60;85.36;100547.03;4935401;29;20295;-83
2022/03/27 18:44:06;;;;;;;;;;;;;;;2.62;85.52;100540.94;4933345;29;20389;-83
2022/03/27 18:46:31;;;;;;;;;;;;;;;2.63;85.33;100545.31;4933909;29;20040;-82
2022/03/27 18:48:57;;;;;;;;;;;;;;;2.61;85.48;100539.19;4934042;29;20374;-83
2022/03/27 18:51:22;;;;;;;;;;;;;;;2.62;85.28;100538.34;4934522;29;20259;-83
2022/03/27 18:53:47;;;;;;;;;;;;;;;2.64;85.09;100541.81;4932900;29;19927;-84
2022/03/27 18:56:13;;;;;;;;;;;;;;;2.67;85.01;100541.81;4934966;29;19923;-85
2022/03/27 18:58:39;;;;;;;;;;;;;;;2.64;84.84;100546.19;4934400;29;19974;-84
2022/03/27 19:01:07;;;;;;;;;;;;;;;2.60;84.73;100545.31;4933295;29;19919;-84
2022/03/27 19:03:32;;;;;;;;;;;;;;;2.67;84.64;100547.06;4931965;29;19926;-86
2022/03/27 19:05:57;;;;;;;;;;;;;;;2.62;84.61;100559.25;4933263;29;19918;-84
2022/03/27 19:08:23;;;;;;;;;;;;;;;2.69;84.67;100555.78;4933763;29;19989;-86
2022/03/27 19:10:48;;;;;;;;;;;;;;;2.70;84.25;100565.38;4933518;29;19923;-84
2022/03/27 19:13:14;;;;;;;;;;;;;;;2.72;84.47;100563.63;4934352;29;19982;-83
2022/03/27 19:15:42;;;;;;;;;;;;;;;2.71;84.56;100563.63;4932814;29;19927;-85
2022/03/27 19:18:21;;;;;;;;;;;;;;;2.70;84.63;100569.75;4933446;29;19962;-85
2022/03/27 19:21:09;;;;;;;;;;;;;;;2.72;84.54;100573.25;4934609;29;20453;-87
2022/03/27 19:23:36;;;;;;;;;;;;;;;2.75;84.55;100569.75;4927553;29;19926;-83
2022/03/27 19:26:01;;;;;;;;;;;;;;;2.73;84.36;100568.00;4932758;29;19923;-87
2022/03/27 19:28:27;;;;;;;;;;;;;;;2.77;84.25;100573.25;4935187;29;19919;-83
2022/03/27 19:30:52;;;;;;;;;;;;;;;2.73;84.20;100578.47;4936692;29;19922;-83
2022/03/27 19:33:18;;;;;;;;;;;;;;;2.73;84.41;100578.47;4936490;29;20382;-87
2022/03/27 19:35:44;;;;;;;;;;;;;;;2.76;84.42;100572.38;4937468;29;19977;-83
2022/03/27 19:38:09;;;;;;;;;;;;;;;2.75;84.29;100575.88;4937653;29;19919;-87
2022/03/27 19:40:35;;;;;;;;;;;;;;;2.82;84.31;100576.75;4937363;29;19951;-84
2022/03/27 19:43:00;;;;;;;;;;;;;;;2.81;84.03;100578.50;4936393;29;20021;-88
2022/03/27 19:45:25;;;;;;;;;;;;;;;2.80;84.15;100579.34;4937553;29;19922;-84
2022/03/27 19:47:52;;;;;;;;;;;;;;;2.81;83.90;100580.22;4936224;29;20009;-83
2022/03/27 19:50:18;;;;;;;;;;;;;;;2.82;83.83;100582.84;4937267;29;19985;-83
2022/03/27 19:52:44;;;;;;;;;;;;;;;2.81;83.67;100583.72;4937503;29;20366;-83
2022/03/27 19:55:10;;;;;;;;;;;;;;;2.88;83.71;100588.09;4936988;29;20286;-84
2022/03/27 19:57:35;;;;;;;;;;;;;;;2.87;83.39;100593.31;4937077;29;19977;-84
2022/03/27 20:00:05;;;;;;;;;;;;;;;2.84;83.21;100590.69;4935997;29;20379;-83
2022/03/27 20:02:30;;;;;;;;;;;;;;;2.87;83.09;100594.22;4935943;29;20374;-83
2022/03/27 20:04:57;;;;;;;;;;;;;;;2.88;83.00;100587.22;4937032;29;19929;-84
2022/03/27 20:07:23;;;;;;;;;;;;;;;2.86;82.82;100589.84;4936607;29;20282;-85
2022/03/27 20:09:48;;;;;;;;;;;;;;;2.86;82.77;100591.59;4935490;29;19919;-83
2022/03/27 20:12:13;;;;;;;;;;;;;;;2.89;82.72;100587.22;4937184;29;19962;-88
2022/03/27 20:14:39;;;;;;;;;;;;;;;2.89;82.75;100594.22;4934313;29;19934;-84
2022/03/27 20:17:04;;;;;;;;;;;;;;;2.91;82.56;100597.69;4932407;29;19934;-83
2022/03/27 20:19:29;;;;;;;;;;;;;;;2.93;82.57;100598.56;4936754;29;19973;-84
2022/03/27 20:21:54;;;;;;;;;;;;;;;2.94;82.28;100592.47;4936652;29;20434;-83
2022/03/27 20:24:20;;;;;;;;;;;;;;;2.97;82.26;100597.72;4935400;29;19925;-84
2022/03/27 20:26:46;;;;;;;;;;;;;;;2.98;81.99;100602.06;4934289;29;20337;-84
2022/03/27 20:29:12;;;;;;;;;;;;;;;2.98;81.92;100603.81;4936886;29;20017;-83
2022/03/27 20:31:37;;;;;;;;;;;;;;;2.96;81.78;100603.81;4935430;29;19922;-83
2022/03/27 20:34:03;;;;;;;;;;;;;;;2.96;81.77;100601.19;4936673;29;19919;-85
2022/03/27 20:36:28;;;;;;;;;;;;;;;3.01;81.60;100609.06;4936548;29;19922;-84
2022/03/27 20:38:53;;;;;;;;;;;;;;;2.99;81.47;100610.81;4936423;29;19931;-84
2022/03/27 20:41:19;;;;;;;;;;;;;;;3.03;81.47;100602.06;4935992;29;19966;-85
2022/03/27 20:43:45;;;;;;;;;;;;;;;3.04;81.50;100603.81;4936533;29;19918;-85
2022/03/27 20:46:11;;;;;;;;;;;;;;;3.03;81.20;100602.97;4935239;29;19923;-84
2022/03/27 20:48:36;;;;;;;;;;;;;;;3.04;81.31;100604.69;4933681;29;19919;-85
2022/03/27 20:51:02;;;;;;;;;;;;;;;3.04;81.15;100602.06;4936321;29;19930;-83
2022/03/27 20:53:27;;;;;;;;;;;;;;;3.06;81.17;100597.72;4936317;29;19922;-84
2022/03/27 20:55:52;;;;;;;;;;;;;;;3.10;81.18;100609.06;4933803;29;19962;-83
2022/03/27 20:58:17;;;;;;;;;;;;;;;3.12;81.22;100607.31;4935369;29;19926;-83
2022/03/27 21:00:44;;;;;;;;;;;;;;;3.14;81.01;100605.56;4935963;29;20445;-83
2022/03/27 21:03:09;;;;;;;;;;;;;;;3.14;80.85;100602.09;4929608;29;19930;-85
2022/03/27 21:05:35;;;;;;;;;;;;;;;3.16;80.75;100602.94;4935814;29;20441;-87
2022/03/27 21:08:00;;;;;;;;;;;;;;;3.17;80.57;100602.94;4934263;29;19962;-86
2022/03/27 21:10:25;;;;;;;;;;;;;;;3.17;80.49;100602.09;4935344;29;19978;-84
2022/03/27 21:12:50;;;;;;;;;;;;;;;3.19;80.65;100605.56;4933698;29;19919;-85
2022/03/27 21:15:16;;;;;;;;;;;;;;;3.19;80.59;100611.69;4934542;29;19958;-89
2022/03/27 21:17:41;;;;;;;;;;;;;;;3.21;80.53;100614.31;4934640;29;19919;-84
2022/03/27 21:20:06;;;;;;;;;;;;;;;3.22;80.59;100609.09;4935753;29;20405;-83
2022/03/27 21:22:32;;;;;;;;;;;;;;;3.21;80.36;100604.72;4935831;29;19919;-85
2022/03/27 21:24:57;;;;;;;;;;;;;;;3.25;80.51;100605.56;4935626;29;20026;-84
2022/03/27 21:27:23;;;;;;;;;;;;;;;3.27;80.55;100603.81;4934436;29;20017;-85
2022/03/27 21:29:48;;;;;;;;;;;;;;;3.30;80.63;100603.81;4935523;29;19919;-83
2022/03/27 21:32:14;;;;;;;;;;;;;;;3.30;80.67;100598.59;4934421;29;20014;-83
2022/03/27 21:34:39;;;;;;;;;;;;;;;3.33;80.90;100601.19;4934713;29;20267;-83
2022/03/27 21:37:05;;;;;;;;;;;;;;;3.33;81.10;100606.44;4934320;29;19978;-83
2022/03/27 21:39:31;;;;;;;;;;;;;;;3.33;80.68;100610.81;4932507;29;20002;-84
2022/03/27 21:41:58;;;;;;;;;;;;;;;3.34;80.23;100609.97;4933868;29;20018;-82
2022/03/27 21:44:24;;;;;;;;;;;;;;;3.33;80.02;100605.59;4935580;29;20286;-83
2022/03/27 21:46:51;;;;;;;;;;;;;;;3.33;79.63;100603.81;4934092;29;19973;-83